createdAt,value
2023-04-09T00:00:39.128Z,29.20
2023-04-09T00:03:26.112Z,27.65
2023-04-09T00:06:12.156Z,34.75
2023-04-09T00:08:56.896Z,26.35
2023-04-09T00:11:42.095Z,29.83
2023-04-09T00:14:26.781Z,28.13
2023-04-09T00:17:11.881Z,28.63
2023-04-09T00:19:56.627Z,33.60
2023-04-09T00:22:41.760Z,28.88
2023-04-09T00:25:26.604Z,27.92
2023-04-09T00:28:14.276Z,33.23
2023-04-09T00:30:59.312Z,30.98
2023-04-09T00:33:44.438Z,29.02
2023-04-09T00:36:29.281Z,32.22
2023-04-09T00:39:14.398Z,28.17
2023-04-09T00:42:02.727Z,29.07
2023-04-09T00:44:50.241Z,31.52
2023-04-09T00:47:36.041Z,28.85
2023-04-09T00:50:21.451Z,27.83
2023-04-09T00:53:06.371Z,29.38
2023-04-09T00:55:53.489Z,28.53
2023-04-09T00:58:40.624Z,30.30
2023-04-09T01:01:25.671Z,29.58
2023-04-09T01:04:10.683Z,29.33
2023-04-09T01:07:37.170Z,29.77
2023-04-09T01:10:33.333Z,32.73
2023-04-09T01:13:42.537Z,28.83
2023-04-09T01:16:30.603Z,28.42
2023-04-09T01:19:34.728Z,27.85
2023-04-09T01:22:40.672Z,30.52
2023-04-09T01:25:50.711Z,30.93
2023-04-09T01:28:42.557Z,25.73
2023-04-09T01:31:32.060Z,30.10
2023-04-09T01:34:18.330Z,26.60
2023-04-09T01:37:03.829Z,30.08
2023-04-09T01:39:48.854Z,31.87
2023-04-09T01:42:34.081Z,30.52
2023-04-09T01:45:23.051Z,30.83
2023-04-09T01:48:09.021Z,28.98
2023-04-09T01:50:54.155Z,35.13
2023-04-09T01:53:39.149Z,28.20
2023-04-09T01:56:24.170Z,27.20
2023-04-09T01:59:09.260Z,27.85
2023-04-09T02:01:59.624Z,28.80
2023-04-09T02:04:49.141Z,28.73
2023-04-09T02:07:43.015Z,27.10
2023-04-09T02:10:31.844Z,27.83
2023-04-09T02:13:21.235Z,27.10
2023-04-09T02:16:08.706Z,26.83
2023-04-09T02:18:55.682Z,26.92
2023-04-09T02:21:40.545Z,29.27
2023-04-09T02:24:25.316Z,29.95
2023-04-09T02:27:10.462Z,30.08
2023-04-09T02:29:55.411Z,29.27
2023-04-09T02:32:40.270Z,27.85
2023-04-09T02:35:25.169Z,27.40
2023-04-09T02:38:14.884Z,28.95
2023-04-09T02:41:00.276Z,29.83
2023-04-09T02:43:45.123Z,29.77
2023-04-09T02:46:29.949Z,25.80
2023-04-09T02:49:15.243Z,30.93
2023-04-09T02:52:03.865Z,25.90
2023-04-09T02:54:49.105Z,26.10
2023-04-09T02:57:34.015Z,27.95
2023-04-09T03:00:19.128Z,32.85
2023-04-09T03:03:04.156Z,31.43
2023-04-09T03:05:49.006Z,31.55
2023-04-09T03:08:33.830Z,36.95
2023-04-09T03:11:20.616Z,32.42
2023-04-09T03:14:05.857Z,33.13
2023-04-09T03:16:51.143Z,34.17
2023-04-09T03:19:36.045Z,30.88
2023-04-09T03:22:21.096Z,36.28
2023-04-09T03:25:06.411Z,36.35
2023-04-09T03:27:51.433Z,38.85
2023-04-09T03:30:36.322Z,41.60
2023-04-09T03:33:21.365Z,38.17
2023-04-09T03:36:08.893Z,42.70
2023-04-09T03:38:54.302Z,39.70
2023-04-09T03:41:39.585Z,40.17
2023-04-09T03:44:24.862Z,36.80
2023-04-09T03:47:09.849Z,38.00
2023-04-09T03:49:54.759Z,37.05
2023-04-09T03:52:39.717Z,41.40
2023-04-09T03:55:24.455Z,45.15
2023-04-09T03:58:09.527Z,37.03
2023-04-09T04:00:54.630Z,37.85
2023-04-09T04:03:39.641Z,33.28
2023-04-09T04:06:24.709Z,32.95
2023-04-09T04:09:10.006Z,35.22
2023-04-09T04:11:55.835Z,29.47
2023-04-09T04:14:41.080Z,25.63
2023-04-09T04:17:26.891Z,28.92
2023-04-09T04:20:14.340Z,28.83
2023-04-09T04:22:59.630Z,25.55
2023-04-09T04:25:44.355Z,26.87
2023-04-09T04:28:29.295Z,28.10
2023-04-09T04:31:14.433Z,30.85
2023-04-09T04:33:59.158Z,28.48
2023-04-09T04:36:44.179Z,24.30
2023-04-09T04:39:30.938Z,28.27
2023-04-09T04:42:16.505Z,28.90
2023-04-09T04:45:01.430Z,28.27
2023-04-09T04:47:46.283Z,26.75
2023-04-09T04:50:31.138Z,25.70
2023-04-09T04:53:16.208Z,26.23
2023-04-09T04:56:01.042Z,26.30
2023-04-09T04:58:47.190Z,27.33
2023-04-09T05:01:32.231Z,26.52
2023-04-09T05:04:17.103Z,23.30
2023-04-09T05:07:01.849Z,25.03
2023-04-09T05:09:46.801Z,25.00
2023-04-09T05:12:31.990Z,24.23
2023-04-09T05:15:17.097Z,24.55
2023-04-09T05:18:03.827Z,23.60
2023-04-09T05:20:48.970Z,22.30
2023-04-09T05:23:33.642Z,24.90
2023-04-09T05:26:21.070Z,25.70
2023-04-09T05:29:06.492Z,27.67
2023-04-09T05:31:51.471Z,23.88
2023-04-09T05:34:36.882Z,24.83
2023-04-09T05:37:21.721Z,21.60
2023-04-09T05:40:07.049Z,23.42
2023-04-09T05:42:52.199Z,25.73
2023-04-09T05:45:37.617Z,22.00
2023-04-09T05:48:22.753Z,21.87
2023-04-09T05:51:07.596Z,17.83
2023-04-09T05:53:53.012Z,22.98
2023-04-09T05:56:45.351Z,21.48
2023-04-09T05:59:30.516Z,19.13
2023-04-09T06:02:15.879Z,17.37
2023-04-09T06:05:01.041Z,17.75
2023-04-09T06:07:45.982Z,17.23
2023-04-09T06:10:33.660Z,15.43
2023-04-09T06:13:18.731Z,17.02
2023-04-09T06:16:07.133Z,19.03
2023-04-09T06:18:56.759Z,16.65
2023-04-09T06:21:42.286Z,16.73
2023-04-09T06:24:27.141Z,15.02
2023-04-09T06:27:12.309Z,18.58
2023-04-09T06:29:56.894Z,14.90
2023-04-09T06:32:51.314Z,19.15
2023-04-09T06:35:38.885Z,14.07
2023-04-09T06:38:23.936Z,16.23
2023-04-09T06:41:08.980Z,15.48
2023-04-09T06:43:54.613Z,14.27
2023-04-09T06:46:39.401Z,15.55
2023-04-09T06:49:24.276Z,16.90
2023-04-09T06:52:09.308Z,13.80
2023-04-09T06:54:54.114Z,14.68
2023-04-09T06:57:39.175Z,14.03
2023-04-09T07:00:25.020Z,13.55
2023-04-09T07:03:10.093Z,13.13
2023-04-09T07:06:02.619Z,13.27
2023-04-09T07:08:47.372Z,14.48
2023-04-09T07:11:32.377Z,13.53
2023-04-09T07:14:17.340Z,14.27
2023-04-09T07:17:02.034Z,11.60
2023-04-09T07:19:47.256Z,12.82
2023-04-09T07:22:32.349Z,10.40
2023-04-09T07:25:17.188Z,14.73
2023-04-09T07:28:02.009Z,11.80
2023-04-09T07:30:47.256Z,12.98
2023-04-09T07:33:32.025Z,11.48
2023-04-09T07:36:17.017Z,10.15
2023-04-09T07:39:01.853Z,13.63
2023-04-09T07:41:47.308Z,10.95
2023-04-09T07:44:36.362Z,12.95
2023-04-09T07:47:21.652Z,10.50
2023-04-09T07:50:07.339Z,12.00
2023-04-09T07:52:52.219Z,10.93
2023-04-09T07:55:37.287Z,12.85
2023-04-09T07:58:23.348Z,10.23
2023-04-09T08:01:08.732Z,11.27
2023-04-09T08:03:53.731Z,10.85
2023-04-09T08:06:38.993Z,11.27
2023-04-09T08:09:24.074Z,11.98
2023-04-09T08:12:09.141Z,11.88
2023-04-09T08:14:54.375Z,9.05
2023-04-09T08:17:39.132Z,10.20
2023-04-09T08:20:27.717Z,13.33
2023-04-09T08:23:12.609Z,13.65
2023-04-09T08:25:57.737Z,12.68
2023-04-09T08:28:44.828Z,12.02
2023-04-09T08:31:30.094Z,9.73
2023-04-09T08:34:16.023Z,10.43
2023-04-09T08:37:00.701Z,10.43
2023-04-09T08:39:45.925Z,10.27
2023-04-09T08:42:34.170Z,10.35
2023-04-09T08:45:19.220Z,12.43
2023-04-09T08:48:07.315Z,12.00
2023-04-09T08:50:53.003Z,11.73
2023-04-09T08:53:38.891Z,11.35
2023-04-09T08:56:24.605Z,9.77
2023-04-09T08:59:09.871Z,7.57
2023-04-09T09:02:09.256Z,8.83
2023-04-09T09:04:59.404Z,8.60
2023-04-09T09:07:53.768Z,7.55
2023-04-09T09:10:38.823Z,7.22
2023-04-09T09:13:26.253Z,5.68
2023-04-09T09:16:13.558Z,6.43
2023-04-09T09:18:59.132Z,6.75
2023-04-09T09:21:56.069Z,7.00
2023-04-09T09:24:52.022Z,7.55
2023-04-09T09:27:40.172Z,8.65
2023-04-09T09:30:28.093Z,5.90
2023-04-09T09:33:12.964Z,6.10
2023-04-09T09:35:57.917Z,6.90
2023-04-09T09:38:54.857Z,8.07
2023-04-09T09:41:41.596Z,5.35
2023-04-09T09:44:33.600Z,5.40
2023-04-09T09:47:19.776Z,6.60
2023-04-09T09:50:05.438Z,5.18
2023-04-09T09:52:56.331Z,5.20
2023-04-09T09:55:48.696Z,5.35
2023-04-09T09:58:42.780Z,5.97
2023-04-09T10:01:28.232Z,6.18
2023-04-09T10:04:19.088Z,5.75
2023-04-09T10:07:05.720Z,5.60
2023-04-09T10:09:52.649Z,6.57
2023-04-09T10:12:38.671Z,4.83
2023-04-09T10:15:23.723Z,7.20
2023-04-09T10:18:08.944Z,5.47
2023-04-09T10:21:10.346Z,6.78
2023-04-09T10:23:55.335Z,5.32
2023-04-09T10:26:41.899Z,6.00
2023-04-09T10:29:29.073Z,6.22
2023-04-09T10:32:23.537Z,5.72
2023-04-09T10:35:11.764Z,6.20
2023-04-09T10:37:57.324Z,4.72
2023-04-09T10:40:47.716Z,4.97
2023-04-09T10:43:35.765Z,6.03
2023-04-09T10:46:34.409Z,5.72
2023-04-09T10:49:22.108Z,4.80
2023-04-09T10:52:11.854Z,6.30
2023-04-09T10:54:57.453Z,4.97
2023-04-09T10:57:42.923Z,5.45
2023-04-09T11:00:27.923Z,5.38
2023-04-09T11:03:32.320Z,4.35
2023-04-09T11:06:20.295Z,7.32
2023-04-09T11:09:05.245Z,5.90
2023-04-09T11:11:53.606Z,5.45
2023-04-09T11:14:38.684Z,5.57
2023-04-09T11:17:23.841Z,6.30
2023-04-09T11:20:10.676Z,5.88
2023-04-09T11:22:56.039Z,5.97
2023-04-09T11:25:41.203Z,5.50
2023-04-09T11:28:26.208Z,4.85
2023-04-09T11:31:11.124Z,5.22
2023-04-09T11:33:56.024Z,8.52
2023-04-09T11:36:40.968Z,5.10
2023-04-09T11:39:26.278Z,5.95
2023-04-09T11:42:14.980Z,5.80
2023-04-09T11:45:01.018Z,5.88
2023-04-09T11:47:47.138Z,4.70
2023-04-09T11:50:32.287Z,7.40
2023-04-09T11:53:22.045Z,6.97
2023-04-09T11:56:07.685Z,6.07
2023-04-09T11:58:54.602Z,7.00
2023-04-09T12:01:39.895Z,6.10
2023-04-09T12:04:25.395Z,5.90
2023-04-09T12:07:10.535Z,6.35
2023-04-09T12:09:57.706Z,6.15
2023-04-09T12:12:45.330Z,6.85
2023-04-09T12:15:35.756Z,6.10
2023-04-09T12:18:22.228Z,6.03
2023-04-09T12:21:07.086Z,5.63
2023-04-09T12:23:52.159Z,5.15
2023-04-09T12:26:36.972Z,6.53
2023-04-09T12:29:23.533Z,4.53
2023-04-09T12:32:08.802Z,6.43
2023-04-09T12:34:54.028Z,5.28
2023-04-09T12:37:40.677Z,6.65
2023-04-09T12:40:26.867Z,7.15
2023-04-09T12:43:11.782Z,6.43
2023-04-09T12:45:57.008Z,7.77
2023-04-09T12:48:42.096Z,5.88
2023-04-09T12:51:26.997Z,6.60
2023-04-09T12:54:11.905Z,6.10
2023-04-09T12:56:59.165Z,6.07
2023-04-09T12:59:44.173Z,7.30
2023-04-09T13:02:29.887Z,5.88
2023-04-09T13:05:17.472Z,6.03
2023-04-09T13:08:02.717Z,6.43
2023-04-09T13:10:47.728Z,7.00
2023-04-09T13:13:32.402Z,6.73
2023-04-09T13:16:23.299Z,7.03
2023-04-09T13:19:09.647Z,5.80
2023-04-09T13:21:54.457Z,5.68
2023-04-09T13:24:39.542Z,5.75
2023-04-09T13:27:24.533Z,6.47
2023-04-09T13:30:11.529Z,6.65
2023-04-09T13:32:56.431Z,5.65
2023-04-09T13:35:41.283Z,5.80
2023-04-09T13:38:26.564Z,7.68
2023-04-09T13:41:11.331Z,6.03
2023-04-09T13:43:56.299Z,4.72
2023-04-09T13:46:41.275Z,6.68
2023-04-09T13:49:27.364Z,4.20
2023-04-09T13:52:14.302Z,5.07
2023-04-09T13:54:59.344Z,5.53
2023-04-09T13:57:44.262Z,6.35
2023-04-09T14:00:31.637Z,4.68
2023-04-09T14:03:16.973Z,5.85
2023-04-09T14:06:02.458Z,5.68
2023-04-09T14:08:49.489Z,6.23
2023-04-09T14:11:36.675Z,5.43
2023-04-09T14:14:21.612Z,5.95
2023-04-09T14:17:06.354Z,5.13
2023-04-09T14:19:51.515Z,5.32
2023-04-09T14:22:36.232Z,5.23
2023-04-09T14:25:21.363Z,4.60
2023-04-09T14:28:06.519Z,5.90
2023-04-09T14:30:51.683Z,6.85
2023-04-09T14:33:36.396Z,6.70
2023-04-09T14:36:24.262Z,5.63
2023-04-09T14:39:09.473Z,5.07
2023-04-09T14:41:56.890Z,5.13
2023-04-09T14:44:41.826Z,5.05
2023-04-09T14:47:27.000Z,5.63
2023-04-09T14:50:12.775Z,5.30
2023-04-09T14:52:57.862Z,6.10
2023-04-09T14:55:43.673Z,4.82
2023-04-09T14:58:31.295Z,7.25
2023-04-09T15:01:16.578Z,5.75
2023-04-09T15:04:01.592Z,5.97
2023-04-09T15:06:48.926Z,4.63
2023-04-09T15:09:34.019Z,6.13
2023-04-09T15:12:19.012Z,4.78
2023-04-09T15:15:08.641Z,4.88
2023-04-09T15:17:53.615Z,4.90
2023-04-09T15:20:39.712Z,4.18
2023-04-09T15:23:25.073Z,5.03
2023-04-09T15:26:10.246Z,4.88
2023-04-09T15:29:06.450Z,4.93
2023-04-09T15:31:53.164Z,7.07
2023-04-09T15:34:38.405Z,5.40
2023-04-09T15:37:23.361Z,5.57
2023-04-09T15:40:08.593Z,5.30
2023-04-09T15:42:54.776Z,6.63
2023-04-09T15:45:39.666Z,5.00
2023-04-09T15:48:24.817Z,5.30
2023-04-09T15:51:10.394Z,4.93
2023-04-09T15:53:55.300Z,5.95
2023-04-09T15:56:40.661Z,4.10
2023-04-09T15:59:25.923Z,5.17
2023-04-09T16:02:12.996Z,4.20
2023-04-09T16:04:57.791Z,3.25
2023-04-09T16:07:42.682Z,5.65
2023-04-09T16:10:30.841Z,4.45
2023-04-09T16:13:16.515Z,4.47
2023-04-09T16:16:01.447Z,4.72
2023-04-09T16:18:46.631Z,4.82
2023-04-09T16:21:32.076Z,5.75
2023-04-09T16:24:16.922Z,4.63
2023-04-09T16:27:01.786Z,5.27
2023-04-09T16:29:52.265Z,3.30
2023-04-09T16:32:37.232Z,4.95
2023-04-09T16:35:22.306Z,4.90
2023-04-09T16:38:08.619Z,5.78
2023-04-09T16:40:59.048Z,5.73
2023-04-09T16:43:46.313Z,4.70
2023-04-09T16:46:31.396Z,4.80
2023-04-09T16:49:16.509Z,7.95
2023-04-09T16:52:01.244Z,4.60
2023-04-09T16:54:46.370Z,4.63
2023-04-09T16:57:31.048Z,4.68
2023-04-09T17:00:17.648Z,5.28
2023-04-09T17:03:05.506Z,5.18
2023-04-09T17:05:50.853Z,5.30
2023-04-09T17:08:35.711Z,5.20
2023-04-09T17:11:21.170Z,5.68
2023-04-09T17:14:06.359Z,4.68
2023-04-09T17:16:53.623Z,6.10
2023-04-09T17:19:38.806Z,5.30
2023-04-09T17:22:23.663Z,5.10
2023-04-09T17:25:11.008Z,5.18
2023-04-09T17:28:00.266Z,5.68
2023-04-09T17:30:45.612Z,5.80
2023-04-09T17:33:30.644Z,5.75
2023-04-09T17:36:20.535Z,5.40
2023-04-09T17:39:06.314Z,5.65
2023-04-09T17:41:53.367Z,5.63
2023-04-09T17:44:38.945Z,6.00
2023-04-09T17:47:24.084Z,5.28
2023-04-09T17:50:09.144Z,5.57
2023-04-09T17:52:54.022Z,5.45
2023-04-09T17:55:38.731Z,6.18
2023-04-09T17:58:29.271Z,6.40
2023-04-09T18:01:14.589Z,5.38
2023-04-09T18:04:03.305Z,7.07
2023-04-09T18:06:48.631Z,5.20
2023-04-09T18:09:33.493Z,5.60
2023-04-09T18:12:18.668Z,6.07
2023-04-09T18:15:04.123Z,5.20
2023-04-09T18:17:49.196Z,5.90
2023-04-09T18:20:34.322Z,6.25
2023-04-09T18:23:19.542Z,5.38
2023-04-09T18:26:04.911Z,6.57
2023-04-09T18:28:50.357Z,7.03
2023-04-09T18:31:35.528Z,7.03
2023-04-09T18:34:22.253Z,7.50
2023-04-09T18:37:07.516Z,6.32
2023-04-09T18:39:52.396Z,7.97
2023-04-09T18:42:37.035Z,5.90
2023-04-09T18:45:22.130Z,8.67
2023-04-09T18:48:09.143Z,7.15
2023-04-09T18:50:56.552Z,9.43
2023-04-09T18:53:41.856Z,7.28
2023-04-09T18:56:28.923Z,6.47
2023-04-09T18:59:13.991Z,5.87
2023-04-09T19:01:59.353Z,7.97
2023-04-09T19:04:44.951Z,6.70
2023-04-09T19:07:33.629Z,6.03
2023-04-09T19:10:24.041Z,7.70
2023-04-09T19:13:12.485Z,6.60
2023-04-09T19:15:58.231Z,8.32
2023-04-09T19:18:43.034Z,7.10
2023-04-09T19:21:31.193Z,8.52
2023-04-09T19:24:18.380Z,8.45
2023-04-09T19:27:09.610Z,8.77
2023-04-09T19:29:57.188Z,11.38
2023-04-09T19:32:44.832Z,9.65
2023-04-09T19:35:30.208Z,9.80
2023-04-09T19:38:21.104Z,9.98
2023-04-09T19:41:06.489Z,8.20
2023-04-09T19:43:51.248Z,8.15
2023-04-09T19:46:36.048Z,7.43
2023-04-09T19:49:21.124Z,8.40
2023-04-09T19:52:06.845Z,7.57
2023-04-09T19:54:56.117Z,8.40
2023-04-09T19:57:43.406Z,10.35
2023-04-09T20:00:28.790Z,9.02
2023-04-09T20:03:13.730Z,9.45
2023-04-09T20:05:59.000Z,10.90
2023-04-09T20:08:44.425Z,8.00
2023-04-09T20:11:29.371Z,9.32
2023-04-09T20:14:14.252Z,8.60
2023-04-09T20:16:59.313Z,8.00
2023-04-09T20:19:44.204Z,9.05
2023-04-09T20:22:29.374Z,9.00
2023-04-09T20:25:14.186Z,7.80
2023-04-09T20:27:59.294Z,8.27
2023-04-09T20:30:44.529Z,8.10
2023-04-09T20:33:29.730Z,10.00
2023-04-09T20:36:19.141Z,8.57
2023-04-09T20:39:04.188Z,10.18
2023-04-09T20:41:49.094Z,11.65
2023-04-09T20:44:33.854Z,12.18
2023-04-09T20:47:20.692Z,13.13
2023-04-09T20:50:05.800Z,13.43
2023-04-09T20:52:50.643Z,15.95
2023-04-09T20:55:35.573Z,21.60
2023-04-09T20:58:21.090Z,21.45
2023-04-09T21:01:13.827Z,25.15
2023-04-09T21:03:58.873Z,27.87
2023-04-09T21:06:43.594Z,24.85
2023-04-09T21:09:29.115Z,25.80
2023-04-09T21:12:14.075Z,27.90
2023-04-09T21:15:01.349Z,27.27
2023-04-09T21:17:46.363Z,24.10
2023-04-09T21:20:31.074Z,20.00
2023-04-09T21:23:16.321Z,16.52
2023-04-09T21:26:03.373Z,15.48
2023-04-09T21:28:50.340Z,14.07
2023-04-09T21:31:36.421Z,14.70
2023-04-09T21:34:23.964Z,13.88
2023-04-09T21:37:09.065Z,12.50
2023-04-09T21:40:02.082Z,13.70
2023-04-09T21:42:47.174Z,13.82
2023-04-09T21:45:32.009Z,13.63
2023-04-09T21:48:17.212Z,11.27
2023-04-09T21:51:04.594Z,13.60
2023-04-09T21:53:49.604Z,13.82
2023-04-09T21:56:35.741Z,13.48
2023-04-09T21:59:26.138Z,12.80
2023-04-09T22:02:11.200Z,13.05
2023-04-09T22:05:01.137Z,15.35
2023-04-09T22:07:46.174Z,11.23
2023-04-09T22:10:33.557Z,11.50
2023-04-09T22:13:18.164Z,13.43
2023-04-09T22:16:02.924Z,12.60
2023-04-09T22:18:48.136Z,14.55
2023-04-09T22:21:35.184Z,13.10
2023-04-09T22:24:27.026Z,11.20
2023-04-09T22:27:12.868Z,13.00
2023-04-09T22:29:57.601Z,13.27
2023-04-09T22:32:47.634Z,12.43
2023-04-09T22:35:32.534Z,11.55
2023-04-09T22:38:17.568Z,11.38
2023-04-09T22:41:03.374Z,13.77
2023-04-09T22:43:50.228Z,12.25
2023-04-09T22:46:35.932Z,13.32
2023-04-09T22:49:21.401Z,9.68
2023-04-09T22:52:06.211Z,12.07
2023-04-09T22:54:51.354Z,10.80
2023-04-09T22:57:37.176Z,11.20
2023-04-09T23:02:51.755Z,11.00
2023-04-09T23:05:39.236Z,12.77
2023-04-09T23:08:26.678Z,11.77
2023-04-09T23:11:11.805Z,11.10
2023-04-09T23:13:56.866Z,11.30
2023-04-09T23:16:41.559Z,10.52
2023-04-09T23:19:26.959Z,12.73
2023-04-09T23:22:11.932Z,10.57
2023-04-09T23:24:56.986Z,10.23
2023-04-09T23:27:42.379Z,10.70
2023-04-09T23:30:27.945Z,9.23
2023-04-09T23:33:13.004Z,9.60
2023-04-09T23:36:03.115Z,9.23
2023-04-09T23:38:47.898Z,11.02
2023-04-09T23:41:32.687Z,10.55
2023-04-09T23:44:17.557Z,8.82
2023-04-09T23:47:03.488Z,11.60
2023-04-09T23:49:48.485Z,9.50
2023-04-09T23:52:34.853Z,9.43
2023-04-09T23:55:20.795Z,9.18
2023-04-09T23:58:07.060Z,8.70
